Flight Track Log - Related Links

Times and Time Zones

All times are in EDT time to prevent confusion due to time zone crossing. See the VH-YDN flight status page for this flight to view local times or setup timezone preferences in your user account.

Time Position Orientation Groundspeed Altitude Reporting Facility
EDT Latitude Longitude Course Direction KTS MPH feet Rate Location/Type
Tue 03:33:41 AM -23.2926 129.5948 98° East 1,800  Level Aus ATC (Calculated)
Tue 03:34:16 AM -23.3016 129.6618 98° East 1,800  Level Aus ATC (Calculated)
Tue 03:36:00 AM -23.3193 129.7979 98° East  Level FlightAware Approximate
Tue 03:37:00 AM -23.3294 129.8764 98° East  Level FlightAware Approximate
Tue 03:37:15 AM -23.3352 129.9213 98° East 2,800  Level Aus ATC (Calculated)
Tue 03:39:00 AM -23.3528 130.0587 98° East  Level FlightAware Approximate
Tue 03:40:00 AM -23.3628 130.1373 98° East  Level FlightAware Approximate
Tue 03:41:00 AM -23.3728 130.2158 98° East  Level FlightAware Approximate
Tue 03:41:27 AM -23.3745 130.2294 360° North 1,800  Level Aus ATC (Calculated)
Tue 03:41:40 AM -23.3745 130.2294 98° East 1,800  Level Aus ATC (Calculated)
Tue 03:43:00 AM -23.3878 130.3342 98° East  Level FlightAware Approximate
Tue 03:43:00 AM -23.3894 130.3438 98° East 1,800  Level Aus ATC (Calculated)
Tue 03:44:00 AM -23.3992 130.4224 98° East  Level FlightAware Approximate
Tue 03:44:29 AM -23.4037 130.4546 97° East 2,800  Level Aus ATC (Calculated)
Tue 03:45:00 AM -23.4091 130.5010 98° East  Level FlightAware Approximate
Tue 03:46:00 AM -23.4185 130.5738 98° East  Level FlightAware Approximate
Tue 03:47:00 AM -23.4283 130.6525 98° East  Level FlightAware Approximate
Tue 03:48:00 AM -23.4380 130.7311 98° East  Level FlightAware Approximate
Tue 03:49:00 AM -23.4476 130.8097 98° East  Level FlightAware Approximate
Tue 03:49:30 AM -23.4584 130.8842 73° East 1,800  Level Aus ATC (Calculated)
Tue 03:50:00 AM -23.4573 130.8884 98° East  Level FlightAware Approximate
Tue 03:51:00 AM -23.4727 131.0022 98° East  Level FlightAware Approximate
Tue 03:52:00 AM -23.4822 131.0809 97° East  Level FlightAware Approximate
Tue 03:53:00 AM -23.4916 131.1596 97° East  Level FlightAware Approximate
Tue 03:54:00 AM -23.5010 131.2383 97° East  Level FlightAware Approximate
Tue 03:55:00 AM -23.5104 131.3171 97° East  Level FlightAware Approximate
Tue 03:56:00 AM -23.5197 131.3958 97° East  Level FlightAware Approximate
Tue 03:57:00 AM -23.5290 131.4745 97° East  Level FlightAware Approximate
Tue 03:58:00 AM -23.5382 131.5533 97° East  Level FlightAware Approximate
Tue 03:59:00 AM -23.5474 131.6321 97° East  Level FlightAware Approximate
Tue 04:00:00 AM -23.5566 131.7108 97° East  Level FlightAware Approximate
Tue 04:01:00 AM -23.5658 131.7896 97° East  Level FlightAware Approximate
Tue 04:02:00 AM -23.5748 131.8684 97° East  Level FlightAware Approximate
Tue 04:03:00 AM -23.5839 131.9473 97° East  Level FlightAware Approximate
Tue 04:04:00 AM -23.5929 132.0261 97° East  Level FlightAware Approximate
Tue 04:04:00 AM -23.6011 132.0987 97° East 2,800  Level Aus ATC (Calculated)
Tue 04:05:00 AM -23.6101 132.1776 97° East  Level FlightAware Approximate
Tue 04:05:32 AM -23.6147 132.2112 97° East 2,800  Level Aus ATC (Calculated)
Tue 04:06:28 AM -23.6273 132.3166 97° East 1,800 -566 Descending Aus ATC (Calculated)
Tue 04:07:18 AM -23.6391 132.4155 97° East 1,800  Level Aus ATC (Calculated)
Tue 04:08:08 AM -23.6491 132.5068 97° East 1,800  Level Aus ATC (Calculated)
Tue 04:09:07 AM -23.6594 132.5939 97° East 1,800  Level Aus ATC (Calculated)
Tue 04:11:00 AM -23.6754 132.7425 97° East  Level FlightAware Approximate
Tue 04:12:00 AM -23.6838 132.8215 97° East  Level FlightAware Approximate
Tue 04:13:00 AM -23.6922 132.9005 97° East  Level FlightAware Approximate
Tue 04:14:00 AM -23.7006 132.9794 97° East  Level FlightAware Approximate
Tue 04:14:41 AM -23.7022 132.9949 97° East 2,800  Level Aus ATC (Calculated)
Tue 04:15:57 AM -23.7138 133.1053 277° West 2,800  Level Aus ATC (Calculated)
Tue 04:16:00 AM -23.7131 133.0990 97° East  Level FlightAware Approximate
Tue 04:17:00 AM -23.7225 133.1882 97° East  Level FlightAware Approximate
Tue 04:18:00 AM -23.7307 133.2673 96° East  Level FlightAware Approximate
Tue 04:19:00 AM -23.7388 133.3463 96° East  Level FlightAware Approximate
Tue 04:19:46 AM -23.7438 133.3950 96° East 2,800  Level Aus ATC (Calculated)
Tue 04:21:00 AM -23.7538 133.4925 96° East  Level FlightAware Approximate
Tue 04:21:51 AM -23.7623 133.5762 276° West 2,800  Level Aus ATC (Calculated)
Tue 04:22:00 AM -23.7619 133.5716 96° East  Level FlightAware Approximate
Tue 04:23:00 AM -23.7715 133.6671 96° East  Level FlightAware Approximate
Tue 04:23:07 AM -23.7739 133.6573 95° East 1,800  Level Aus ATC (Calculated)
Tue 04:23:51 AM -23.7786 133.7126 95° East 2,800 1,364 Climbing Aus ATC (Calculated)
Tue 04:25:00 AM -23.7864 133.8036 95° East  Level FlightAware Approximate
Tue 04:26:00 AM -23.7931 133.8829 95° East  Level FlightAware Approximate
Tue 04:27:00 AM -23.8067 133.9022 275° West  Level Estimated
Tue 04:28:00 AM -23.8067 133.9022 302° West  Level Estimated
Tue 04:29:00 AM -23.8067 133.9022 302° West  Level Estimated
Tue 04:30:00 AM -23.8067 133.9022 302° West  Level Estimated
Tue 04:31:00 AM -23.8067 133.9022 302° West  Level Estimated
Tue 04:32:00 AM -23.8067 133.9022 302° West  Level Estimated
Tue 04:33:00 AM -23.8067 133.9022 302° West  Level Estimated
Tue 04:34:00 AM -23.8067 133.9022 302° West  Level Estimated
Tue 04:35:00 AM -23.8067 133.9022 98° East  Level Estimated
Tue 04:36:00 AM -23.8067 133.9022 98° East  Level Estimated
Tue 04:37:00 AM -23.8067 133.9022 98° East  Level Estimated
Tue 04:38:00 AM -23.8067 133.9022 98° East  Level Estimated
Tue 04:39:00 AM -23.8067 133.9022 98° East  Level Estimated
Tue 04:40:00 AM -23.8067 133.9022 98° East  Level Estimated
Tue 04:41:00 AM -23.8067 133.9022 98° East  Level Estimated
Tue 04:42:00 AM -23.8067 133.9022 98° East  Level Estimated
Tue 04:43:00 AM -23.8067 133.9022 98° East  Level Estimated
Tue 04:44:00 AM -23.8067 133.9022 98° East  Level Estimated

Login

Don't have an account? Register now (free) for customized features, flight alerts, and more!